createdAt,value
2022-10-22T00:01:54.601Z,12.23
2022-10-22T00:04:42.235Z,15.77
2022-10-22T00:07:29.509Z,17.50
2022-10-22T00:10:17.861Z,13.60
2022-10-22T00:13:05.505Z,15.53
2022-10-22T00:15:52.654Z,15.30
2022-10-22T00:18:39.971Z,11.47
2022-10-22T00:21:31.935Z,10.93
2022-10-22T00:24:19.373Z,14.70
2022-10-22T00:27:08.520Z,12.60
2022-10-22T00:29:55.885Z,16.27
2022-10-22T00:32:43.106Z,12.37
2022-10-22T00:35:30.517Z,15.50
2022-10-22T00:38:18.028Z,17.20
2022-10-22T00:41:05.288Z,14.53
2022-10-22T00:43:56.713Z,15.80
2022-10-22T00:46:43.904Z,12.50
2022-10-22T00:49:31.393Z,13.60
2022-10-22T00:52:18.706Z,15.90
2022-10-22T00:55:06.871Z,15.17
2022-10-22T00:57:58.823Z,11.03
2022-10-22T01:00:46.109Z,11.67
2022-10-22T01:03:35.202Z,13.93
2022-10-22T01:06:29.244Z,11.10
2022-10-22T01:09:40.634Z,9.80
2022-10-22T01:12:42.848Z,14.50
2022-10-22T01:15:53.788Z,10.23
2022-10-22T01:18:57.491Z,12.03
2022-10-22T01:21:48.802Z,13.37
2022-10-22T01:24:41.054Z,12.17
2022-10-22T01:27:48.106Z,13.07
2022-10-22T01:30:37.234Z,14.97
2022-10-22T01:33:25.910Z,13.37
2022-10-22T01:36:14.650Z,14.83
2022-10-22T01:39:03.014Z,14.37
2022-10-22T01:41:50.088Z,11.30
2022-10-22T01:44:40.396Z,14.90
2022-10-22T01:47:50.026Z,12.10
2022-10-22T01:50:57.534Z,15.20
2022-10-22T01:54:25.792Z,13.50
2022-10-22T01:57:51.761Z,17.77
2022-10-22T02:00:46.387Z,13.93
2022-10-22T02:03:46.815Z,13.17
2022-10-22T02:06:35.649Z,13.83
2022-10-22T02:09:25.608Z,11.53
2022-10-22T02:12:14.916Z,12.27
2022-10-22T02:15:04.643Z,13.27
2022-10-22T02:17:55.429Z,13.70
2022-10-22T02:20:43.338Z,12.27
2022-10-22T02:23:30.740Z,14.87
2022-10-22T02:26:32.818Z,13.53
2022-10-22T02:29:27.661Z,12.00
2022-10-22T02:32:21.177Z,11.63
2022-10-22T02:35:12.346Z,10.80
2022-10-22T02:38:00.385Z,10.70
2022-10-22T02:40:47.732Z,13.23
2022-10-22T02:43:50.369Z,14.10
2022-10-22T02:46:39.681Z,11.37
2022-10-22T02:49:27.042Z,16.73
2022-10-22T02:52:17.672Z,12.40
2022-10-22T02:55:05.978Z,9.10
2022-10-22T02:57:53.201Z,9.67
2022-10-22T03:00:40.496Z,12.00
2022-10-22T03:03:28.124Z,11.73
2022-10-22T03:06:15.742Z,9.40
2022-10-22T03:09:03.941Z,14.00
2022-10-22T03:11:51.602Z,12.93
2022-10-22T03:14:38.706Z,10.67
2022-10-22T03:17:26.566Z,13.07
2022-10-22T03:20:13.709Z,10.07
2022-10-22T03:23:02.843Z,9.00
2022-10-22T03:25:50.384Z,13.97
2022-10-22T03:28:42.031Z,8.37
2022-10-22T03:31:32.892Z,10.47
2022-10-22T03:34:22.562Z,10.73
2022-10-22T03:37:14.440Z,9.57
2022-10-22T03:40:05.438Z,12.67
2022-10-22T03:43:02.216Z,16.63
2022-10-22T03:45:54.288Z,14.13
2022-10-22T03:48:42.224Z,11.00
2022-10-22T03:51:29.857Z,12.13
2022-10-22T03:54:20.214Z,15.03
2022-10-22T03:57:08.060Z,11.57
2022-10-22T03:59:55.954Z,12.30
2022-10-22T04:02:43.022Z,13.70
2022-10-22T04:05:34.166Z,15.83
2022-10-22T04:08:45.879Z,10.90
2022-10-22T04:11:34.603Z,17.83
2022-10-22T04:14:29.234Z,10.57
2022-10-22T04:17:22.775Z,11.83
2022-10-22T04:20:11.972Z,12.20
2022-10-22T04:23:03.435Z,12.67
2022-10-22T04:25:51.125Z,16.30
2022-10-22T04:28:38.405Z,15.97
2022-10-22T04:31:26.699Z,16.03
2022-10-22T04:34:26.711Z,15.87
2022-10-22T04:37:13.786Z,16.80
2022-10-22T04:40:01.658Z,20.73
2022-10-22T04:42:49.035Z,21.13
2022-10-22T04:45:42.895Z,19.93
2022-10-22T04:51:17.667Z,17.10
2022-10-22T04:54:04.835Z,18.30
2022-10-22T04:56:51.965Z,18.13
2022-10-22T04:59:39.101Z,15.97
2022-10-22T05:02:26.056Z,15.53
2022-10-22T05:05:13.030Z,18.23
2022-10-22T05:08:00.000Z,15.20
2022-10-22T05:10:46.989Z,17.33
2022-10-22T05:13:33.896Z,11.93
2022-10-22T05:16:20.858Z,12.70
2022-10-22T05:19:08.292Z,16.23
2022-10-22T05:21:58.083Z,12.93
2022-10-22T05:24:45.253Z,15.13
2022-10-22T05:27:32.393Z,12.67
2022-10-22T05:30:19.353Z,14.03
2022-10-22T05:33:06.280Z,19.13
2022-10-22T05:35:54.095Z,12.40
2022-10-22T05:38:41.109Z,14.77
2022-10-22T05:41:28.974Z,19.80
2022-10-22T05:44:16.026Z,20.73
2022-10-22T05:47:02.942Z,16.30
2022-10-22T05:49:50.156Z,17.13
2022-10-22T05:52:37.141Z,18.13
2022-10-22T05:55:24.705Z,17.87
2022-10-22T05:58:13.316Z,25.50
2022-10-22T06:01:06.012Z,16.13
2022-10-22T06:03:58.801Z,15.63
2022-10-22T06:06:48.906Z,16.93
2022-10-22T06:12:24.659Z,17.23
2022-10-22T06:15:14.389Z,16.23
2022-10-22T06:18:01.349Z,18.07
2022-10-22T06:20:48.286Z,16.97
2022-10-22T06:23:37.587Z,20.23
2022-10-22T06:26:24.710Z,14.63
2022-10-22T06:29:11.711Z,18.13
2022-10-22T06:31:58.623Z,17.27
2022-10-22T06:34:46.326Z,26.90
2022-10-22T06:37:33.278Z,17.87
2022-10-22T06:40:20.309Z,15.33
2022-10-22T06:43:07.250Z,18.10
2022-10-22T06:45:59.797Z,20.77
2022-10-22T06:48:57.204Z,20.83
2022-10-22T06:51:44.521Z,20.30
2022-10-22T06:54:31.558Z,20.33
2022-10-22T06:57:18.697Z,20.43
2022-10-22T07:00:07.189Z,22.50
2022-10-22T07:02:57.683Z,17.10
2022-10-22T07:05:46.360Z,20.30
2022-10-22T07:08:34.277Z,15.60
2022-10-22T07:11:23.955Z,20.77
2022-10-22T07:14:12.033Z,17.30
2022-10-22T07:16:59.166Z,19.97
2022-10-22T07:19:49.622Z,15.57
2022-10-22T07:22:38.534Z,14.73
2022-10-22T07:25:25.780Z,15.53
2022-10-22T07:28:12.772Z,15.47
2022-10-22T07:31:00.815Z,17.40
2022-10-22T07:33:47.790Z,15.87
2022-10-22T07:36:34.857Z,15.10
2022-10-22T07:39:21.901Z,15.47
2022-10-22T07:42:08.891Z,16.07
2022-10-22T07:44:55.801Z,15.23
2022-10-22T07:47:43.863Z,15.13
2022-10-22T07:50:30.892Z,22.97
2022-10-22T07:53:18.723Z,14.40
2022-10-22T07:56:07.021Z,12.23
2022-10-22T07:58:54.055Z,11.67
2022-10-22T08:01:41.118Z,11.30
2022-10-22T08:04:30.907Z,13.67
2022-10-22T08:07:19.041Z,13.30
2022-10-22T08:10:07.106Z,10.33
2022-10-22T08:12:54.062Z,9.50
2022-10-22T08:18:30.505Z,9.17
2022-10-22T08:21:17.594Z,8.27
2022-10-22T08:24:04.965Z,10.70
2022-10-22T08:26:52.310Z,10.23
2022-10-22T08:29:39.866Z,6.87
2022-10-22T08:35:16.798Z,7.87
2022-10-22T08:38:04.702Z,8.33
2022-10-22T08:40:54.370Z,7.00
2022-10-22T08:43:51.765Z,6.53
2022-10-22T08:47:12.819Z,6.97
2022-10-22T08:50:00.598Z,6.03
2022-10-22T08:52:53.840Z,7.43
2022-10-22T08:55:41.499Z,5.63
2022-10-22T08:58:48.082Z,7.40
2022-10-22T09:01:49.895Z,4.33
2022-10-22T09:04:43.137Z,6.73
2022-10-22T09:07:30.188Z,5.20
2022-10-22T09:10:24.648Z,6.57
2022-10-22T09:13:19.086Z,9.20
2022-10-22T09:16:22.366Z,6.03
2022-10-22T09:19:12.430Z,7.80
2022-10-22T09:22:36.581Z,5.20
2022-10-22T09:25:25.573Z,7.93
2022-10-22T09:28:13.061Z,8.53
2022-10-22T09:31:00.144Z,9.17
2022-10-22T09:33:50.871Z,5.13
2022-10-22T09:36:38.282Z,7.53
2022-10-22T09:39:33.237Z,8.63
2022-10-22T09:42:22.278Z,5.50
2022-10-22T09:45:19.997Z,7.03
2022-10-22T09:48:19.618Z,8.07
2022-10-22T09:51:06.558Z,5.83
2022-10-22T09:54:02.177Z,6.00
2022-10-22T09:56:58.410Z,7.47
2022-10-22T09:59:49.353Z,5.90
2022-10-22T10:02:42.245Z,6.30
2022-10-22T10:05:34.926Z,5.37
2022-10-22T10:08:22.938Z,8.10
2022-10-22T10:11:32.669Z,7.90
2022-10-22T10:14:49.145Z,7.20
2022-10-22T10:17:51.238Z,6.53
2022-10-22T10:21:02.519Z,5.40
2022-10-22T10:24:14.483Z,8.27
2022-10-22T10:27:09.619Z,4.97
2022-10-22T10:30:10.054Z,6.63
2022-10-22T10:33:11.188Z,6.83
2022-10-22T10:36:12.210Z,7.17
2022-10-22T10:39:17.290Z,5.13
2022-10-22T10:42:19.442Z,5.60
2022-10-22T10:45:31.365Z,8.03
2022-10-22T10:48:43.829Z,8.13
2022-10-22T10:51:38.745Z,9.30
2022-10-22T10:54:25.640Z,5.30
2022-10-22T10:57:40.082Z,8.27
2022-10-22T11:00:35.762Z,9.53
2022-10-22T11:03:39.102Z,11.40
2022-10-22T11:06:28.159Z,8.80
2022-10-22T11:09:20.851Z,11.57
2022-10-22T11:12:17.058Z,8.90
2022-10-22T11:15:20.828Z,8.23
2022-10-22T11:18:22.996Z,9.80
2022-10-22T11:21:21.449Z,5.97
2022-10-22T11:24:12.592Z,8.63
2022-10-22T11:27:33.633Z,7.87
2022-10-22T11:30:23.346Z,7.50
2022-10-22T11:33:19.517Z,8.90
2022-10-22T11:36:08.788Z,6.57
2022-10-22T11:38:56.007Z,6.43
2022-10-22T11:41:45.540Z,11.17
2022-10-22T11:44:46.423Z,7.47
2022-10-22T11:47:42.146Z,7.50
2022-10-22T11:50:29.265Z,6.30
2022-10-22T11:53:30.723Z,5.13
2022-10-22T11:56:27.895Z,6.50
2022-10-22T11:59:39.741Z,5.03
2022-10-22T12:02:44.791Z,7.23
2022-10-22T12:05:34.953Z,7.60
2022-10-22T12:08:25.289Z,6.60
2022-10-22T12:11:12.144Z,5.53
2022-10-22T12:14:03.641Z,5.70
2022-10-22T12:17:12.758Z,10.10
2022-10-22T12:20:07.534Z,6.00
2022-10-22T12:22:57.428Z,5.90
2022-10-22T12:25:44.339Z,6.97
2022-10-22T12:28:41.017Z,6.53
2022-10-22T12:31:28.675Z,7.37
2022-10-22T12:34:18.164Z,8.13
2022-10-22T12:37:05.891Z,9.07
2022-10-22T12:39:52.948Z,5.47
2022-10-22T12:42:40.686Z,4.60
2022-10-22T12:45:30.905Z,7.27
2022-10-22T12:48:23.155Z,5.47
2022-10-22T12:51:16.477Z,6.90
2022-10-22T12:54:19.953Z,5.50
2022-10-22T12:57:13.246Z,5.20
2022-10-22T13:02:47.715Z,6.23
2022-10-22T13:05:44.274Z,5.93
2022-10-22T13:08:34.435Z,7.70
2022-10-22T13:11:21.632Z,7.57
2022-10-22T13:14:34.409Z,7.90
2022-10-22T13:17:41.260Z,4.83
2022-10-22T13:20:28.655Z,5.43
2022-10-22T13:23:24.797Z,6.37
2022-10-22T13:26:17.942Z,9.73
2022-10-22T13:29:12.110Z,6.53
2022-10-22T13:31:59.082Z,9.10
2022-10-22T13:34:46.104Z,7.10
2022-10-22T13:37:34.351Z,6.77
2022-10-22T13:40:21.987Z,7.67
2022-10-22T13:43:08.974Z,3.90
2022-10-22T13:45:59.094Z,5.97
2022-10-22T13:48:47.906Z,7.57
2022-10-22T13:51:35.876Z,6.17
2022-10-22T13:54:24.721Z,7.53
2022-10-22T13:57:11.699Z,6.70
2022-10-22T13:59:58.594Z,4.50
2022-10-22T14:02:49.072Z,6.30
2022-10-22T14:05:36.026Z,5.87
2022-10-22T14:08:26.028Z,6.20
2022-10-22T14:11:13.129Z,4.93
2022-10-22T14:14:00.218Z,5.20
2022-10-22T14:16:47.213Z,7.73
2022-10-22T14:19:34.381Z,5.63
2022-10-22T14:22:22.452Z,8.83
2022-10-22T14:25:14.359Z,6.37
2022-10-22T14:28:01.502Z,6.27
2022-10-22T14:30:49.358Z,5.13
2022-10-22T14:33:36.289Z,4.20
2022-10-22T14:36:23.258Z,4.50
2022-10-22T14:39:10.305Z,4.77
2022-10-22T14:41:57.399Z,6.83
2022-10-22T14:44:44.315Z,5.80
2022-10-22T14:47:32.245Z,5.47
2022-10-22T14:50:19.844Z,5.87
2022-10-22T14:53:06.902Z,4.60
2022-10-22T14:55:57.663Z,4.43
2022-10-22T14:58:45.810Z,4.07
2022-10-22T15:01:33.251Z,6.10
2022-10-22T15:04:20.229Z,6.40
2022-10-22T15:07:07.327Z,6.57
2022-10-22T15:09:54.411Z,7.23
2022-10-22T15:12:41.615Z,4.90
2022-10-22T15:15:34.069Z,5.30
2022-10-22T15:18:25.882Z,8.30
2022-10-22T15:21:19.047Z,6.10
2022-10-22T15:24:06.426Z,7.60
2022-10-22T15:26:54.121Z,6.97
2022-10-22T15:29:42.212Z,4.83
2022-10-22T15:32:29.333Z,7.17
2022-10-22T15:35:16.357Z,5.63
2022-10-22T15:38:06.650Z,12.63
2022-10-22T15:41:05.488Z,4.77
2022-10-22T15:43:53.256Z,9.03
2022-10-22T15:46:41.072Z,7.47
2022-10-22T15:49:28.857Z,6.60
2022-10-22T15:52:16.377Z,8.13
2022-10-22T15:55:10.825Z,7.77
2022-10-22T15:58:00.541Z,6.40
2022-10-22T16:00:50.824Z,7.37
2022-10-22T16:03:39.336Z,7.73
2022-10-22T16:19:03.383Z,4.57
2022-10-22T16:21:53.334Z,8.30
2022-10-22T16:24:41.286Z,9.40
2022-10-22T16:27:30.088Z,7.43
2022-10-22T16:30:17.775Z,6.63
2022-10-22T16:33:19.051Z,7.53
2022-10-22T16:36:07.944Z,8.30
2022-10-22T16:38:56.811Z,7.70
2022-10-22T16:41:44.067Z,6.93
2022-10-22T16:44:31.070Z,6.03
2022-10-22T16:47:18.073Z,7.00
2022-10-22T16:50:07.507Z,9.93
2022-10-22T16:52:54.540Z,8.93
2022-10-22T16:55:41.647Z,6.40
2022-10-22T16:58:28.639Z,6.10
2022-10-22T17:01:18.070Z,5.70
2022-10-22T17:04:05.220Z,7.40
2022-10-22T17:06:52.215Z,8.97
2022-10-22T17:09:39.377Z,10.07
2022-10-22T17:12:26.335Z,9.73
2022-10-22T17:15:13.893Z,9.57
2022-10-22T17:18:00.993Z,6.83
2022-10-22T17:20:47.941Z,9.23
2022-10-22T17:23:34.935Z,6.43
2022-10-22T17:26:22.861Z,8.27
2022-10-22T17:29:09.818Z,8.70
2022-10-22T17:31:56.756Z,9.00
2022-10-22T17:34:43.718Z,11.03
2022-10-22T17:37:30.765Z,11.67
2022-10-22T17:40:17.725Z,10.07
2022-10-22T17:43:04.721Z,8.93
2022-10-22T17:45:51.614Z,7.10
2022-10-22T17:48:38.857Z,8.87
2022-10-22T17:51:27.652Z,11.83
2022-10-22T17:54:14.908Z,10.87
2022-10-22T17:57:01.905Z,10.77
2022-10-22T17:59:48.816Z,10.00
2022-10-22T18:02:35.802Z,13.57
2022-10-22T18:05:24.776Z,15.50
2022-10-22T18:08:11.767Z,18.53
2022-10-22T18:10:58.749Z,21.30
2022-10-22T18:13:50.426Z,21.90
2022-10-22T18:16:37.382Z,20.00
2022-10-22T18:19:24.725Z,18.37
2022-10-22T18:22:11.714Z,18.23
2022-10-22T18:24:58.730Z,18.57
2022-10-22T18:27:46.058Z,20.23
2022-10-22T18:30:33.045Z,16.73
2022-10-22T18:33:24.011Z,16.10
2022-10-22T18:36:15.691Z,17.93
2022-10-22T18:39:03.769Z,17.43
2022-10-22T18:41:50.884Z,20.97
2022-10-22T18:44:37.833Z,17.27
2022-10-22T18:47:24.746Z,20.00
2022-10-22T18:50:12.782Z,18.23
2022-10-22T18:52:59.748Z,17.57
2022-10-22T18:55:46.694Z,18.10
2022-10-22T18:58:45.033Z,16.50
2022-10-22T19:01:34.540Z,15.30
2022-10-22T19:04:21.964Z,19.53
2022-10-22T19:10:00.800Z,21.80
2022-10-22T19:12:47.759Z,18.83
2022-10-22T19:15:34.748Z,22.73
2022-10-22T19:18:21.650Z,19.00
2022-10-22T19:21:08.832Z,16.70
2022-10-22T19:23:57.651Z,18.70
2022-10-22T19:26:45.581Z,16.03
2022-10-22T19:29:32.561Z,19.57
2022-10-22T19:32:20.256Z,18.70
2022-10-22T19:35:07.557Z,16.73
2022-10-22T19:37:54.562Z,15.13
2022-10-22T19:40:42.057Z,17.50
2022-10-22T19:43:29.313Z,17.87
2022-10-22T19:46:17.448Z,18.47
2022-10-22T19:49:05.217Z,20.13
2022-10-22T19:51:52.146Z,18.73
2022-10-22T19:54:41.096Z,18.33
2022-10-22T19:57:28.014Z,21.00
2022-10-22T20:00:15.011Z,22.23
2022-10-22T20:03:01.915Z,21.27
2022-10-22T20:05:51.186Z,16.77
2022-10-22T20:08:38.848Z,19.03
2022-10-22T20:11:29.810Z,16.73
2022-10-22T20:14:16.708Z,17.67
2022-10-22T20:17:03.701Z,17.53
2022-10-22T20:19:50.652Z,17.73
2022-10-22T20:22:37.633Z,19.00
2022-10-22T20:25:24.641Z,17.53
2022-10-22T20:28:13.377Z,19.13
2022-10-22T20:31:00.478Z,18.70
2022-10-22T20:33:50.427Z,14.43
2022-10-22T20:36:37.354Z,16.97
2022-10-22T20:39:24.834Z,18.47
2022-10-22T20:42:11.741Z,17.30
2022-10-22T20:44:58.700Z,18.60
2022-10-22T20:47:51.771Z,20.73
2022-10-22T20:50:45.625Z,18.87
2022-10-22T20:53:32.526Z,17.53
2022-10-22T20:56:19.957Z,21.07
2022-10-22T20:59:10.744Z,15.23
2022-10-22T21:01:57.825Z,15.80
2022-10-22T21:04:46.395Z,18.63
2022-10-22T21:07:33.729Z,16.97
2022-10-22T21:10:20.696Z,12.80
2022-10-22T21:13:07.712Z,16.50
2022-10-22T21:15:54.602Z,17.17
2022-10-22T21:18:41.642Z,14.27
2022-10-22T21:21:28.807Z,18.77
2022-10-22T21:24:16.333Z,17.97
2022-10-22T21:27:04.111Z,15.53
2022-10-22T21:29:51.751Z,17.47
2022-10-22T21:32:39.068Z,16.07
2022-10-22T21:35:26.150Z,13.70
2022-10-22T21:38:13.057Z,13.43
2022-10-22T21:41:05.059Z,17.03
2022-10-22T21:43:52.133Z,11.67
2022-10-22T21:46:39.215Z,11.23
2022-10-22T21:49:26.201Z,15.30
2022-10-22T21:52:13.408Z,14.53
2022-10-22T21:55:00.392Z,15.20
2022-10-22T21:57:47.418Z,15.53
2022-10-22T22:00:34.506Z,14.27
2022-10-22T22:03:21.745Z,11.17
2022-10-22T22:06:08.768Z,12.17
2022-10-22T22:08:55.793Z,17.27
2022-10-22T22:11:42.787Z,10.10
2022-10-22T22:14:30.815Z,16.93
2022-10-22T22:17:18.690Z,13.77
2022-10-22T22:20:06.024Z,14.13
2022-10-22T22:22:52.955Z,14.87
2022-10-22T22:25:39.964Z,9.83
2022-10-22T22:28:28.765Z,12.83
2022-10-22T22:31:20.709Z,11.60
2022-10-22T22:34:13.373Z,11.93
2022-10-22T22:37:00.307Z,15.23
2022-10-22T22:39:47.214Z,14.43
2022-10-22T22:42:34.217Z,15.67
2022-10-22T22:45:21.121Z,12.83
2022-10-22T22:48:08.373Z,10.80
2022-10-22T22:50:55.464Z,12.33
2022-10-22T22:53:42.524Z,12.27
2022-10-22T22:56:37.215Z,14.00
2022-10-22T22:59:24.863Z,12.60
2022-10-22T23:02:13.193Z,10.00
2022-10-22T23:05:00.885Z,12.53
2022-10-22T23:07:49.961Z,14.43
2022-10-22T23:13:43.019Z,16.33
2022-10-22T23:16:35.812Z,11.70
2022-10-22T23:19:31.557Z,19.07
2022-10-22T23:22:20.198Z,13.60
2022-10-22T23:25:08.913Z,12.97
2022-10-22T23:28:05.077Z,12.03
2022-10-22T23:30:53.557Z,14.93
2022-10-22T23:36:46.731Z,12.57
2022-10-22T23:39:35.965Z,14.20
2022-10-22T23:42:25.411Z,10.73
2022-10-22T23:45:14.125Z,15.50
2022-10-22T23:48:05.548Z,12.57
2022-10-22T23:54:00.497Z,10.50
2022-10-22T23:56:52.735Z,11.23
2022-10-22T23:59:41.727Z,12.90
